Pagrindinis puslapis
METAR-TAF:

METAR-TAF

Oro uostai :

Tojama, Japonija

platuma: 36-39N, ilguma: 137-11E, Aukštis: 24 m

Dabartinis oras

Ataskaita buvo paskelbta 32 minutes, ne 23:00 UTC
Vėjas 4 kt iš Pietų/Pietvakarių
Temperatūra 3°C
Drėgmė 93%
Slėgis 1029 hPa
Matomumas 10 km arba daugiau
Mažai debesys ne aukštis 4000 ft
Su prošvaistėmis ne aukštis 5000 ft
Su prošvaistėmis

METAR: RJNT 142300Z 20004KT 9999 FEW040 BKN050 BKN/// 03/02 Q1029

Laikas: 08:32 (23:32 UTC)

Prognozė

Ataskaita buvo paskelbta 6 valandos ir 27 minutes, ne 17:05 UTC
Prognozė galioja nuo 14 metu 18 UTC su 16 metu 00 UTC
Vėjas 4 kt iš Pietų
Matomumas 10 km arba daugiau
Mažai debesys ne aukštis 2000 ft
Su prošvaistėmis ne aukštis 5000 ft
Tapsmas
nuo 15 metu 00 UTC su 15 metu 02 UTC
Vėjas 6 kt iš Šiaurės
Tapsmas
nuo 15 metu 09 UTC su 15 metu 12 UTC
Vėjas 4 kt iš Pietų

TAF: RJNT 141705Z 1418/1600 18004KT 9999 FEW020 BKN050 BECMG 1500/1502 36006KT BECMG 1509/1512 18004KT

Orai ataskaitas ir orų prognozės (METAR, TAF).

turimą stotys yra geltonos ir raudonos taškus žemėlapyje.

Perkelti pele per norėdami pamatyti stoties vardą.

Tada spustelėkite, norėdami matyti oro stebėjimo ir prognozės.

Norėdami pakeisti žemėlapį: spustelėkite ant žalios mygtukų su juodo kryžiaus žemyn,; žalią mygtuką su brūkšneliu, jei norite nutolinti; arba žalių rodyklių gretimoms žemėlapius.


METAR-TAF: